Miskolc, Hungary
Current Conditions -  °F | °C
As of 10:00 PM on Thursday 18 Dec 2014 (Local Time) from LZKZ Reporting Station
Broken Clouds Broken Clouds  
Wind Chill: 39°   Ceiling: 800
Heat Index: 39°   Visibility: 6mi
Dew Point: 37°   Wind: 3mph
Humidity: 93%   Direction: 160°SSE
Pressure: 30.03"   Gusts: NA
Location:  48.1°N, 20.79°E
Report Text: LZKZ 182000Z 16003KT 130V200 9999 BKN008 04/03 Q1017
Loading
Personal Weather Stations






























Interactive Weather Map New forecast layout! Learn more

10-Day Weather Forecast

Advertisements
Track Severe Weather on mobile